createdAt,value
2023-03-06T00:01:02.443Z,-1.50
2023-03-06T00:02:06.283Z,-1.54
2023-03-06T00:03:08.541Z,-1.41
2023-03-06T00:04:10.584Z,-1.53
2023-03-06T00:05:14.587Z,-1.51
2023-03-06T00:06:16.825Z,-1.51
2023-03-06T00:07:18.840Z,-1.63
2023-03-06T00:08:20.852Z,-1.63
2023-03-06T00:09:22.861Z,-1.55
2023-03-06T00:10:27.823Z,-1.52
2023-03-06T00:11:29.959Z,-1.38
2023-03-06T00:12:32.846Z,-1.29
2023-03-06T00:13:34.743Z,-1.42
2023-03-06T00:14:36.732Z,-1.51
2023-03-06T00:15:39.025Z,-1.50
2023-03-06T00:16:41.220Z,-1.59
2023-03-06T00:17:43.083Z,-1.54
2023-03-06T00:18:44.972Z,-1.53
2023-03-06T00:19:47.044Z,-1.67
2023-03-06T00:20:49.221Z,-1.54
2023-03-06T00:21:51.238Z,-1.65
2023-03-06T00:22:55.471Z,-1.55
2023-03-06T00:23:57.493Z,-1.55
2023-03-06T00:24:59.420Z,-1.52
2023-03-06T00:26:01.390Z,-1.69
2023-03-06T00:27:03.779Z,-1.56
2023-03-06T00:28:05.678Z,-1.54
2023-03-06T00:29:08.529Z,-1.51
2023-03-06T00:30:15.931Z,-1.61
2023-03-06T00:31:17.982Z,-1.66
2023-03-06T00:32:20.049Z,-1.65
2023-03-06T00:33:22.084Z,-1.56
2023-03-06T00:34:24.076Z,-1.68
2023-03-06T00:35:26.006Z,-1.50
2023-03-06T00:36:28.202Z,-1.52
2023-03-06T00:37:30.213Z,-1.39
2023-03-06T00:38:33.308Z,-1.47
2023-03-06T00:39:35.344Z,-1.67
2023-03-06T00:40:37.341Z,-1.67
2023-03-06T00:41:39.510Z,-1.66
2023-03-06T00:42:41.847Z,-1.62
2023-03-06T00:43:43.730Z,-1.73
2023-03-06T00:44:46.079Z,-1.64
2023-03-06T00:45:48.034Z,-1.58
2023-03-06T00:46:50.258Z,-1.63
2023-03-06T00:47:52.135Z,-1.71
2023-03-06T00:48:54.014Z,-1.70
2023-03-06T00:49:56.038Z,-1.67
2023-03-06T00:50:58.384Z,-1.49
2023-03-06T00:52:00.586Z,-1.55
2023-03-06T00:53:03.102Z,-1.65
2023-03-06T00:54:05.236Z,-1.55
2023-03-06T00:55:08.770Z,-1.40
2023-03-06T00:56:10.796Z,-1.33
2023-03-06T00:57:12.893Z,-1.32
2023-03-06T00:58:14.797Z,-1.21
2023-03-06T00:59:17.057Z,-1.28
2023-03-06T01:00:20.971Z,-1.22
2023-03-06T01:01:23.100Z,-1.48
2023-03-06T01:02:26.138Z,-1.27
2023-03-06T01:03:28.186Z,-1.33
2023-03-06T01:04:31.114Z,-1.60
2023-03-06T01:05:35.670Z,-1.60
2023-03-06T01:06:38.515Z,-1.64
2023-03-06T01:07:40.460Z,-1.45
2023-03-06T01:08:42.501Z,-1.48
2023-03-06T01:09:44.484Z,-1.33
2023-03-06T01:10:47.283Z,-1.55
2023-03-06T01:11:51.056Z,-1.50
2023-03-06T01:12:54.028Z,-1.48
2023-03-06T01:13:56.593Z,-1.34
2023-03-06T01:14:58.965Z,-1.37
2023-03-06T01:16:13.829Z,-1.34
2023-03-06T01:17:15.856Z,-1.27
2023-03-06T01:18:18.031Z,-1.56
2023-03-06T01:19:20.119Z,-1.55
2023-03-06T01:20:22.839Z,-1.42
2023-03-06T01:21:25.831Z,-1.63
2023-03-06T01:22:28.526Z,-1.65
2023-03-06T01:23:31.356Z,-1.56
2023-03-06T01:24:33.239Z,-1.58
2023-03-06T01:25:35.401Z,-1.58
2023-03-06T01:26:38.463Z,-1.39
2023-03-06T01:27:40.576Z,-1.39
2023-03-06T01:28:43.606Z,-1.51
2023-03-06T01:29:45.515Z,-1.71
2023-03-06T01:30:47.589Z,-1.76
2023-03-06T01:31:49.656Z,-1.75
2023-03-06T01:32:51.752Z,-1.60
2023-03-06T01:33:53.935Z,-1.49
2023-03-06T01:34:56.430Z,-1.65
2023-03-06T01:35:58.476Z,-1.73
2023-03-06T01:37:00.496Z,-1.65
2023-03-06T01:38:02.661Z,-1.58
2023-03-06T01:39:04.762Z,-1.86
2023-03-06T01:40:09.904Z,-1.69
2023-03-06T01:41:12.046Z,-1.75
2023-03-06T01:42:14.976Z,-1.77
2023-03-06T01:43:29.645Z,-2.07
2023-03-06T01:44:31.999Z,-2.05
2023-03-06T01:45:37.715Z,-1.91
2023-03-06T01:46:50.369Z,-2.04
2023-03-06T01:47:52.857Z,-1.80
2023-03-06T01:50:17.682Z,-1.79
2023-03-06T01:51:22.217Z,-1.79
2023-03-06T01:52:27.999Z,-1.69
2023-03-06T01:53:30.993Z,-1.68
2023-03-06T01:55:52.521Z,-1.61
2023-03-06T01:56:58.571Z,-1.66
2023-03-06T01:58:06.745Z,-1.75
2023-03-06T01:59:09.470Z,-1.62
2023-03-06T02:00:18.024Z,-1.75
2023-03-06T02:01:20.930Z,-2.05
2023-03-06T02:02:23.970Z,-1.75
2023-03-06T02:03:27.818Z,-2.06
2023-03-06T02:04:31.550Z,-1.79
2023-03-06T02:05:34.117Z,-1.66
2023-03-06T02:06:39.851Z,-1.74
2023-03-06T02:07:43.616Z,-1.67
2023-03-06T02:08:50.427Z,-1.84
2023-03-06T02:09:52.348Z,-1.69
2023-03-06T02:11:10.460Z,-1.94
2023-03-06T02:12:15.872Z,-1.82
2023-03-06T02:13:18.051Z,-1.94
2023-03-06T02:14:20.779Z,-2.08
2023-03-06T02:15:24.722Z,-1.86
2023-03-06T02:16:29.948Z,-2.00
2023-03-06T02:17:34.710Z,-1.84
2023-03-06T02:18:37.684Z,-1.73
2023-03-06T02:19:46.250Z,-1.68
2023-03-06T02:20:52.212Z,-1.69
2023-03-06T02:21:54.932Z,-1.88
2023-03-06T02:23:16.322Z,-1.69
2023-03-06T02:24:25.308Z,-1.86
2023-03-06T02:25:37.094Z,-1.81
2023-03-06T02:26:41.588Z,-1.74
2023-03-06T02:27:43.972Z,-1.93
2023-03-06T02:28:46.321Z,-1.97
2023-03-06T02:29:48.427Z,-2.07
2023-03-06T02:30:53.406Z,-1.90
2023-03-06T02:31:55.838Z,-1.77
2023-03-06T02:32:58.168Z,-1.96
2023-03-06T02:34:03.796Z,-2.00
2023-03-06T02:35:08.669Z,-2.15
2023-03-06T02:36:14.215Z,-2.14
2023-03-06T02:37:16.425Z,-2.27
2023-03-06T02:38:21.240Z,-2.11
2023-03-06T02:39:26.000Z,-2.15
2023-03-06T02:40:28.578Z,-2.03
2023-03-06T02:41:30.563Z,-2.15
2023-03-06T02:42:33.458Z,-2.01
2023-03-06T02:43:39.236Z,-2.12
2023-03-06T02:44:41.610Z,-1.93
2023-03-06T02:45:49.588Z,-1.80
2023-03-06T02:46:51.763Z,-2.10
2023-03-06T02:47:53.865Z,-1.88
2023-03-06T02:48:55.997Z,-1.77
2023-03-06T02:49:58.498Z,-1.76
2023-03-06T02:51:02.190Z,-1.69
2023-03-06T02:52:06.597Z,-1.78
2023-03-06T02:53:10.073Z,-1.96
2023-03-06T02:54:12.285Z,-1.79
2023-03-06T02:55:14.645Z,-1.72
2023-03-06T02:56:17.428Z,-1.66
2023-03-06T02:57:19.568Z,-1.69
2023-03-06T02:58:21.877Z,-1.62
2023-03-06T02:59:24.105Z,-1.85
2023-03-06T03:00:26.960Z,-1.73
2023-03-06T03:01:29.099Z,-1.64
2023-03-06T03:02:31.582Z,-1.90
2023-03-06T03:03:34.157Z,-1.90
2023-03-06T03:04:36.212Z,-1.96
2023-03-06T03:05:38.393Z,-2.11
2023-03-06T03:06:40.615Z,-1.88
2023-03-06T03:07:42.783Z,-1.80
2023-03-06T03:08:45.041Z,-1.86
2023-03-06T03:09:47.140Z,-1.79
2023-03-06T03:10:49.828Z,-1.94
2023-03-06T03:11:51.920Z,-1.78
2023-03-06T03:12:54.358Z,-1.78
2023-03-06T03:13:56.681Z,-1.69
2023-03-06T03:14:59.486Z,-1.64
2023-03-06T03:16:04.267Z,-1.58
2023-03-06T03:17:06.565Z,-1.64
2023-03-06T03:18:11.217Z,-1.66
2023-03-06T03:19:13.905Z,-1.67
2023-03-06T03:20:19.138Z,-1.62
2023-03-06T03:21:21.096Z,-1.81
2023-03-06T03:22:23.177Z,-1.69
2023-03-06T03:23:27.017Z,-1.63
2023-03-06T03:24:29.301Z,-1.73
2023-03-06T03:25:31.559Z,-1.64
2023-03-06T03:26:34.006Z,-1.66
2023-03-06T03:27:36.043Z,-1.94
2023-03-06T03:28:38.967Z,-1.78
2023-03-06T03:29:40.917Z,-2.21
2023-03-06T03:30:44.607Z,-2.22
2023-03-06T03:31:47.114Z,-2.18
2023-03-06T03:32:49.297Z,-2.00
2023-03-06T03:33:51.282Z,-1.93
2023-03-06T03:34:55.429Z,-1.88
2023-03-06T03:35:59.733Z,-1.78
2023-03-06T03:37:01.892Z,-1.71
2023-03-06T03:38:04.388Z,-1.68
2023-03-06T03:39:06.588Z,-1.79
2023-03-06T03:40:10.452Z,-1.78
2023-03-06T03:41:12.592Z,-2.07
2023-03-06T03:42:15.748Z,-2.14
2023-03-06T03:43:20.510Z,-2.09
2023-03-06T03:44:22.795Z,-1.89
2023-03-06T03:45:24.819Z,-1.78
2023-03-06T03:46:27.304Z,-1.88
2023-03-06T03:47:30.606Z,-1.82
2023-03-06T03:48:32.850Z,-2.05
2023-03-06T03:49:35.045Z,-2.03
2023-03-06T03:50:38.026Z,-2.33
2023-03-06T03:51:40.021Z,-2.33
2023-03-06T03:52:42.591Z,-2.31
2023-03-06T03:53:45.420Z,-2.17
2023-03-06T03:54:47.577Z,-2.04
2023-03-06T03:55:49.835Z,-2.22
2023-03-06T03:56:53.023Z,-2.21
2023-03-06T03:57:55.348Z,-2.26
2023-03-06T03:58:57.352Z,-2.09
2023-03-06T03:59:59.698Z,-2.09
2023-03-06T04:01:01.818Z,-2.08
2023-03-06T04:02:04.188Z,-2.18
2023-03-06T04:03:06.596Z,-2.34
2023-03-06T04:04:08.624Z,-2.29
2023-03-06T04:05:15.047Z,-2.10
2023-03-06T04:06:18.275Z,-2.12
2023-03-06T04:07:20.538Z,-2.06
2023-03-06T04:08:24.639Z,-1.99
2023-03-06T04:09:26.928Z,-1.98
2023-03-06T04:10:29.826Z,-2.10
2023-03-06T04:11:32.812Z,-2.28
2023-03-06T04:12:35.531Z,-2.11
2023-03-06T04:13:37.450Z,-2.02
2023-03-06T04:14:39.531Z,-2.28
2023-03-06T04:15:41.418Z,-2.10
2023-03-06T04:16:43.418Z,-2.14
2023-03-06T04:17:45.290Z,-2.00
2023-03-06T04:18:47.228Z,-1.92
2023-03-06T04:19:49.628Z,-1.90
2023-03-06T04:20:52.153Z,-1.86
2023-03-06T04:21:54.168Z,-1.99
2023-03-06T04:22:56.157Z,-1.86
2023-03-06T04:23:58.026Z,-1.84
2023-03-06T04:24:59.925Z,-1.77
2023-03-06T04:26:02.720Z,-2.00
2023-03-06T04:27:06.668Z,-2.04
2023-03-06T04:28:08.902Z,-1.97
2023-03-06T04:29:10.781Z,-1.79
2023-03-06T04:30:13.483Z,-1.80
2023-03-06T04:31:15.392Z,-1.99
2023-03-06T04:32:19.712Z,-2.10
2023-03-06T04:33:21.525Z,-2.03
2023-03-06T04:34:23.614Z,-2.01
2023-03-06T04:35:26.060Z,-1.94
2023-03-06T04:36:31.485Z,-1.85
2023-03-06T04:37:33.855Z,-1.89
2023-03-06T04:38:35.759Z,-1.85
2023-03-06T04:39:37.871Z,-1.88
2023-03-06T04:40:40.459Z,-2.00
2023-03-06T04:41:42.975Z,-1.93
2023-03-06T04:42:45.464Z,-1.82
2023-03-06T04:43:47.406Z,-1.82
2023-03-06T04:44:49.300Z,-1.77
2023-03-06T04:45:51.348Z,-1.74
2023-03-06T04:46:53.470Z,-1.67
2023-03-06T04:47:56.861Z,-1.66
2023-03-06T04:49:01.361Z,-1.66
2023-03-06T04:50:05.600Z,-1.80
2023-03-06T04:51:07.964Z,-1.69
2023-03-06T04:52:09.898Z,-1.61
2023-03-06T04:53:13.067Z,-1.64
2023-03-06T04:54:14.957Z,-1.61
2023-03-06T04:55:18.756Z,-1.68
2023-03-06T04:56:20.877Z,-1.67
2023-03-06T04:57:23.019Z,-1.67
2023-03-06T04:58:25.192Z,-1.70
2023-03-06T04:59:27.863Z,-1.63
2023-03-06T05:00:30.309Z,-1.60
2023-03-06T05:01:32.209Z,-1.55
2023-03-06T05:02:34.731Z,-1.50
2023-03-06T05:03:37.148Z,-1.45
2023-03-06T05:04:39.564Z,-1.42
2023-03-06T05:05:42.223Z,-1.50
2023-03-06T05:06:45.004Z,-1.47
2023-03-06T05:07:47.037Z,-1.53
2023-03-06T05:08:49.002Z,-1.47
2023-03-06T05:09:51.029Z,-1.62
2023-03-06T05:10:55.945Z,-1.70
2023-03-06T05:11:57.850Z,-1.75
2023-03-06T05:12:59.711Z,-1.65
2023-03-06T05:14:02.260Z,-1.65
2023-03-06T05:15:06.151Z,-1.72
2023-03-06T05:16:08.480Z,-1.61
2023-03-06T05:17:10.989Z,-1.75
2023-03-06T05:18:12.889Z,-1.81
2023-03-06T05:19:15.487Z,-1.79
2023-03-06T05:20:18.021Z,-1.60
2023-03-06T05:21:20.042Z,-1.68
2023-03-06T05:22:23.199Z,-1.84
2023-03-06T05:23:27.052Z,-1.82
2023-03-06T05:24:29.479Z,-1.74
2023-03-06T05:25:31.612Z,-1.81
2023-03-06T05:26:33.618Z,-1.90
2023-03-06T05:27:36.743Z,-1.97
2023-03-06T05:28:39.587Z,-1.93
2023-03-06T05:29:41.882Z,-1.88
2023-03-06T05:30:44.155Z,-1.87
2023-03-06T05:31:46.330Z,-1.83
2023-03-06T05:32:48.982Z,-1.69
2023-03-06T05:33:51.122Z,-1.61
2023-03-06T05:34:53.696Z,-1.50
2023-03-06T05:35:56.726Z,-1.41
2023-03-06T05:36:59.072Z,-1.55
2023-03-06T05:38:01.599Z,-1.44
2023-03-06T05:39:03.496Z,-1.51
2023-03-06T05:40:07.498Z,-1.51
2023-03-06T05:41:12.955Z,-1.58
2023-03-06T05:42:15.073Z,-1.49
2023-03-06T05:43:17.291Z,-1.39
2023-03-06T05:44:19.295Z,-1.31
2023-03-06T05:45:21.328Z,-1.32
2023-03-06T05:46:25.056Z,-1.35
2023-03-06T05:47:26.976Z,-1.27
2023-03-06T05:48:29.445Z,-1.21
2023-03-06T05:49:33.910Z,-1.16
2023-03-06T05:50:36.302Z,-1.26
2023-03-06T05:51:38.303Z,-1.06
2023-03-06T05:52:40.839Z,-1.20
2023-03-06T05:53:43.183Z,-1.21
2023-03-06T05:54:48.972Z,-0.90
2023-03-06T05:55:59.270Z,-0.75
2023-03-06T05:57:02.896Z,-0.90
2023-03-06T05:58:05.186Z,-0.58
2023-03-06T05:59:07.473Z,-0.49
2023-03-06T06:00:11.294Z,-0.38
2023-03-06T06:01:19.818Z,-0.32
2023-03-06T06:02:21.851Z,-0.23
2023-03-06T06:03:24.439Z,-0.26
2023-03-06T06:04:26.935Z,-0.32
2023-03-06T06:05:28.839Z,-0.69
2023-03-06T06:06:31.058Z,-0.52
2023-03-06T06:07:33.139Z,-0.31
2023-03-06T06:08:35.621Z,-0.25
2023-03-06T06:09:37.588Z,-0.59
2023-03-06T06:10:40.686Z,-0.59
2023-03-06T06:11:42.599Z,-0.33
2023-03-06T06:12:44.561Z,-0.52
2023-03-06T06:13:50.193Z,-0.34
2023-03-06T06:14:52.436Z,-0.30
2023-03-06T06:15:54.525Z,-0.56
2023-03-06T06:16:56.773Z,-0.70
2023-03-06T06:17:59.026Z,-0.46
2023-03-06T06:19:01.032Z,-0.35
2023-03-06T06:20:04.133Z,-0.43
2023-03-06T06:21:08.309Z,-0.42
2023-03-06T06:22:10.716Z,-0.27
2023-03-06T06:23:13.393Z,-0.49
2023-03-06T06:24:17.736Z,-0.43
2023-03-06T06:25:20.142Z,-0.05
2023-03-06T06:26:22.321Z,0.12
2023-03-06T06:27:24.393Z,-0.30
2023-03-06T06:28:27.999Z,0.14
2023-03-06T06:29:30.592Z,0.36
2023-03-06T06:30:33.531Z,0.25
2023-03-06T06:31:35.941Z,0.33
2023-03-06T06:32:39.455Z,0.04
2023-03-06T06:33:41.973Z,0.17
2023-03-06T06:34:44.076Z,0.39
2023-03-06T06:35:45.999Z,0.53
2023-03-06T06:36:50.098Z,0.53
2023-03-06T06:37:53.617Z,0.52
2023-03-06T06:38:58.021Z,0.36
2023-03-06T06:40:00.180Z,0.46
2023-03-06T06:41:33.380Z,0.65
2023-03-06T06:42:28.611Z,0.69
2023-03-06T06:43:11.640Z,0.58
2023-03-06T06:44:15.159Z,0.60
2023-03-06T06:45:18.480Z,0.40
2023-03-06T06:47:09.249Z,0.30
2023-03-06T06:47:25.763Z,0.30
2023-03-06T06:48:28.056Z,0.04
2023-03-06T06:49:30.443Z,0.09
2023-03-06T06:50:32.866Z,0.10
2023-03-06T06:51:35.150Z,-0.39
2023-03-06T06:52:37.228Z,-0.11
2023-03-06T06:53:40.026Z,-0.10
2023-03-06T06:54:42.008Z,-0.03
2023-03-06T06:55:43.966Z,-0.05
2023-03-06T06:56:46.007Z,-0.02
2023-03-06T06:57:48.426Z,0.02
2023-03-06T06:58:59.092Z,0.07
2023-03-06T06:59:58.765Z,-0.54
2023-03-06T07:01:06.003Z,-0.30
2023-03-06T07:02:11.141Z,-0.43
2023-03-06T07:03:13.189Z,-0.24
2023-03-06T07:04:16.000Z,-0.31
2023-03-06T07:05:20.864Z,-0.17
2023-03-06T07:06:24.423Z,-0.14
2023-03-06T07:07:26.826Z,-0.07
2023-03-06T07:08:29.016Z,-0.86
2023-03-06T07:09:31.003Z,-0.54
2023-03-06T07:10:33.766Z,-0.41
2023-03-06T07:11:37.508Z,-0.37
2023-03-06T07:12:39.530Z,-0.19
2023-03-06T07:13:41.400Z,-0.26
2023-03-06T07:14:43.291Z,-0.18
2023-03-06T07:15:45.308Z,-0.10
2023-03-06T07:16:47.573Z,-0.08
2023-03-06T07:17:50.255Z,-0.02
2023-03-06T07:18:52.557Z,0.11
2023-03-06T07:19:54.726Z,0.16
2023-03-06T07:20:56.845Z,0.01
2023-03-06T07:21:59.216Z,0.16
2023-03-06T07:23:01.882Z,0.23
2023-03-06T07:24:04.479Z,-0.11
2023-03-06T07:25:07.638Z,0.09
2023-03-06T07:26:10.397Z,0.24
2023-03-06T07:27:12.588Z,0.11
2023-03-06T07:28:15.269Z,0.27
2023-03-06T07:29:18.046Z,0.35
2023-03-06T07:30:22.265Z,0.45
2023-03-06T07:31:27.074Z,0.44
2023-03-06T07:32:29.220Z,0.41
2023-03-06T07:33:31.820Z,0.39
2023-03-06T07:34:33.836Z,0.51
2023-03-06T07:35:36.023Z,0.05
2023-03-06T07:36:38.751Z,0.31
2023-03-06T07:37:41.638Z,0.40
2023-03-06T07:38:44.429Z,0.61
2023-03-06T07:39:46.517Z,0.13
2023-03-06T07:40:52.382Z,0.43
2023-03-06T07:41:54.341Z,0.54
2023-03-06T07:43:09.064Z,0.68
2023-03-06T07:44:01.759Z,0.76
2023-03-06T07:45:04.859Z,0.89
2023-03-06T07:46:08.066Z,0.96
2023-03-06T07:47:12.408Z,0.97
2023-03-06T07:48:14.524Z,0.77
2023-03-06T07:49:17.453Z,0.27
2023-03-06T07:50:20.679Z,0.19
2023-03-06T07:51:22.625Z,-0.05
2023-03-06T07:52:25.506Z,0.30
2023-03-06T07:53:28.596Z,0.54
2023-03-06T07:54:30.768Z,0.44
2023-03-06T07:55:33.829Z,0.57
2023-03-06T07:56:36.168Z,0.68
2023-03-06T07:57:39.820Z,0.71
2023-03-06T07:58:44.664Z,0.74
2023-03-06T07:59:46.641Z,0.70
2023-03-06T08:00:48.919Z,0.42
2023-03-06T08:01:53.205Z,0.17
2023-03-06T08:02:55.194Z,0.11
2023-03-06T08:03:57.626Z,0.24
2023-03-06T08:04:59.703Z,0.44
2023-03-06T08:06:07.383Z,0.54
2023-03-06T08:07:09.696Z,0.68
2023-03-06T08:08:13.809Z,0.82
2023-03-06T08:09:15.860Z,0.65
2023-03-06T08:10:18.334Z,0.86
2023-03-06T08:11:24.140Z,1.03
2023-03-06T08:12:26.580Z,1.24
2023-03-06T08:13:28.604Z,1.36
2023-03-06T08:14:32.347Z,1.15
2023-03-06T08:15:34.403Z,1.37
2023-03-06T08:16:36.487Z,1.41
2023-03-06T08:17:39.038Z,1.29
2023-03-06T08:18:41.095Z,0.58
2023-03-06T08:19:43.087Z,0.61
2023-03-06T08:20:45.295Z,0.51
2023-03-06T08:21:47.319Z,0.76
2023-03-06T08:22:49.185Z,0.90
2023-03-06T08:23:52.064Z,1.26
2023-03-06T08:24:55.225Z,1.46
2023-03-06T08:26:00.009Z,1.53
2023-03-06T08:27:02.233Z,1.33
2023-03-06T08:28:04.169Z,1.47
2023-03-06T08:29:06.060Z,1.55
2023-03-06T08:30:09.678Z,1.36
2023-03-06T08:31:15.188Z,1.47
2023-03-06T08:32:17.999Z,1.36
2023-03-06T08:33:20.450Z,1.14
2023-03-06T08:34:24.968Z,1.16
2023-03-06T08:35:26.905Z,1.14
2023-03-06T08:36:29.237Z,1.30
2023-03-06T08:37:31.521Z,0.95
2023-03-06T08:38:33.889Z,1.38
2023-03-06T08:39:35.798Z,1.31
2023-03-06T08:40:38.064Z,1.29
2023-03-06T08:41:41.467Z,1.36
2023-03-06T08:42:43.368Z,1.36
2023-03-06T08:43:45.677Z,1.36
2023-03-06T08:44:47.627Z,1.20
2023-03-06T08:45:54.956Z,1.01
2023-03-06T08:46:57.135Z,1.00
2023-03-06T08:47:59.050Z,0.98
2023-03-06T08:49:01.450Z,0.95
2023-03-06T08:50:04.544Z,0.89
2023-03-06T08:52:20.019Z,0.26
2023-03-06T08:53:28.011Z,0.34
2023-03-06T08:54:25.682Z,0.42
2023-03-06T08:55:27.565Z,0.64
2023-03-06T08:56:33.693Z,0.55
2023-03-06T08:57:35.748Z,0.65
2023-03-06T08:58:37.595Z,0.67
2023-03-06T08:59:39.480Z,0.77
2023-03-06T09:00:42.701Z,0.70
2023-03-06T09:01:45.429Z,0.59
2023-03-06T09:02:47.389Z,0.69
2023-03-06T09:03:50.380Z,0.53
2023-03-06T09:04:52.394Z,0.42
2023-03-06T09:05:54.280Z,0.58
2023-03-06T09:06:57.425Z,0.52
2023-03-06T09:08:00.751Z,0.80
2023-03-06T09:09:03.312Z,0.92
2023-03-06T09:10:06.724Z,0.69
2023-03-06T09:11:12.220Z,0.99
2023-03-06T09:12:14.226Z,0.60
2023-03-06T09:13:16.113Z,0.48
2023-03-06T09:14:18.092Z,0.73
2023-03-06T09:15:21.780Z,0.91
2023-03-06T09:16:24.590Z,1.11
2023-03-06T09:17:27.690Z,1.34
2023-03-06T09:18:30.541Z,1.60
2023-03-06T09:19:33.826Z,1.43
2023-03-06T09:20:35.939Z,1.52
2023-03-06T09:21:37.813Z,1.60
2023-03-06T09:22:40.307Z,1.75
2023-03-06T09:23:43.044Z,1.70
2023-03-06T09:24:45.117Z,1.80
2023-03-06T09:25:54.761Z,1.92
2023-03-06T09:26:56.811Z,1.74
2023-03-06T09:28:10.934Z,1.63
2023-03-06T09:29:02.770Z,1.59
2023-03-06T09:30:06.786Z,1.20
2023-03-06T09:31:15.079Z,1.35
2023-03-06T09:32:17.164Z,1.45
2023-03-06T09:33:19.615Z,1.49
2023-03-06T09:34:21.518Z,1.24
2023-03-06T09:35:23.438Z,1.19
2023-03-06T09:36:25.529Z,1.15
2023-03-06T09:37:27.502Z,1.09
2023-03-06T09:38:29.498Z,1.26
2023-03-06T09:39:32.097Z,1.44
2023-03-06T09:40:58.237Z,1.25
2023-03-06T09:42:00.599Z,0.76
2023-03-06T09:43:02.613Z,1.16
2023-03-06T09:44:13.488Z,1.13
2023-03-06T09:45:16.454Z,1.04
2023-03-06T09:46:31.363Z,0.96
2023-03-06T09:47:52.119Z,0.88
2023-03-06T09:49:03.823Z,0.83
2023-03-06T09:50:25.254Z,0.64
2023-03-06T09:51:34.013Z,0.77
2023-03-06T09:52:48.956Z,0.87
2023-03-06T09:54:03.695Z,0.80
2023-03-06T09:55:21.217Z,1.30
2023-03-06T09:56:26.320Z,1.49
2023-03-06T09:57:37.739Z,1.89
2023-03-06T09:58:43.399Z,1.88
2023-03-06T09:59:49.128Z,1.69
2023-03-06T10:01:06.911Z,1.29
2023-03-06T10:02:15.444Z,1.36
2023-03-06T10:03:36.301Z,1.64
2023-03-06T10:04:45.093Z,1.98
2023-03-06T10:05:50.850Z,2.08
2023-03-06T10:06:56.837Z,2.32
2023-03-06T10:08:05.352Z,2.19
2023-03-06T10:09:21.156Z,2.34
2023-03-06T10:10:26.886Z,2.16
2023-03-06T10:11:32.547Z,2.04
2023-03-06T10:12:41.318Z,2.13
2023-03-06T10:13:46.999Z,1.98
2023-03-06T10:14:58.692Z,2.36
2023-03-06T10:17:21.216Z,2.44
2023-03-06T10:18:23.254Z,2.39
2023-03-06T10:20:54.327Z,2.80
2023-03-06T10:22:12.251Z,2.77
2023-03-06T10:23:30.262Z,1.94
2023-03-06T10:24:35.909Z,2.57
2023-03-06T10:25:51.786Z,2.44
2023-03-06T10:27:20.551Z,2.50
2023-03-06T10:28:38.561Z,2.16
2023-03-06T10:31:04.676Z,1.92
2023-03-06T10:32:24.927Z,2.28
2023-03-06T10:33:36.508Z,2.16
2023-03-06T10:34:38.964Z,2.66
2023-03-06T10:35:50.516Z,2.14
2023-03-06T10:36:52.699Z,2.26
2023-03-06T10:38:01.444Z,2.29
2023-03-06T10:39:07.745Z,2.21
2023-03-06T10:40:19.551Z,2.22
2023-03-06T10:41:30.918Z,2.33
2023-03-06T10:42:32.838Z,2.52
2023-03-06T10:43:36.665Z,2.04
2023-03-06T10:44:38.918Z,2.19
2023-03-06T10:45:50.020Z,2.35
2023-03-06T10:46:54.111Z,2.37
2023-03-06T10:48:05.536Z,2.35
2023-03-06T10:49:15.413Z,1.56
2023-03-06T10:50:27.808Z,1.99
2023-03-06T10:51:30.749Z,2.14
2023-03-06T10:52:35.082Z,2.28
2023-03-06T10:53:40.818Z,2.47
2023-03-06T10:54:44.249Z,2.68
2023-03-06T10:55:58.530Z,2.61
2023-03-06T10:57:19.108Z,2.27
2023-03-06T10:58:29.921Z,2.04
2023-03-06T10:59:31.854Z,2.36
2023-03-06T11:00:35.034Z,2.57
2023-03-06T11:01:41.567Z,2.45
2023-03-06T11:02:43.590Z,2.67
2023-03-06T11:03:46.304Z,2.69
2023-03-06T11:04:54.004Z,2.81
2023-03-06T11:06:02.616Z,2.93
2023-03-06T11:07:11.419Z,2.24
2023-03-06T11:08:19.841Z,2.62
2023-03-06T11:09:24.095Z,2.16
2023-03-06T11:10:28.605Z,1.98
2023-03-06T11:11:37.474Z,2.06
2023-03-06T11:12:40.711Z,2.26
2023-03-06T11:13:43.814Z,2.60
2023-03-06T11:14:46.269Z,2.62
2023-03-06T11:15:57.586Z,2.40
2023-03-06T11:16:59.781Z,2.64
2023-03-06T11:18:11.739Z,2.73
2023-03-06T11:19:23.329Z,2.36
2023-03-06T11:20:52.008Z,2.70
2023-03-06T11:22:07.237Z,2.91
2023-03-06T11:23:21.884Z,3.14
2023-03-06T11:24:24.327Z,3.31
2023-03-06T11:25:30.038Z,2.41
2023-03-06T11:26:47.369Z,2.80
2023-03-06T11:27:59.689Z,2.84
2023-03-06T11:29:22.295Z,2.85
2023-03-06T11:30:28.610Z,2.55
2023-03-06T11:31:33.082Z,2.31
2023-03-06T11:32:47.609Z,2.15
2023-03-06T11:33:56.268Z,2.17
2023-03-06T11:35:14.050Z,2.28
2023-03-06T11:36:39.997Z,2.68
2023-03-06T11:37:51.487Z,2.43
2023-03-06T11:38:53.910Z,1.97
2023-03-06T11:40:15.051Z,2.18
2023-03-06T11:41:41.475Z,1.80
2023-03-06T11:42:53.312Z,2.02
2023-03-06T11:44:02.018Z,1.74
2023-03-06T11:45:27.729Z,2.19
2023-03-06T11:46:39.156Z,2.35
2023-03-06T11:47:43.055Z,2.04
2023-03-06T11:50:21.123Z,2.04
2023-03-06T11:51:26.903Z,2.01
2023-03-06T11:52:49.520Z,1.82
2023-03-06T11:53:53.525Z,2.06
2023-03-06T11:54:57.036Z,2.05
2023-03-06T11:56:21.303Z,2.02
2023-03-06T11:57:35.980Z,1.54
2023-03-06T11:59:14.846Z,1.93
2023-03-06T12:00:20.806Z,1.73
2023-03-06T12:01:33.272Z,1.55
2023-03-06T12:02:41.979Z,1.82
2023-03-06T12:04:05.914Z,1.86
2023-03-06T12:05:26.991Z,1.50
2023-03-06T12:06:46.027Z,1.93
2023-03-06T12:08:01.013Z,2.01
2023-03-06T12:09:12.692Z,2.25
2023-03-06T12:10:27.853Z,2.31
2023-03-06T12:11:33.750Z,2.27
2023-03-06T12:12:45.316Z,2.21
2023-03-06T12:14:16.636Z,2.17
2023-03-06T12:15:40.543Z,2.36
2023-03-06T12:17:01.549Z,2.60
2023-03-06T12:18:07.357Z,2.28
2023-03-06T12:19:13.029Z,2.42
2023-03-06T12:20:24.623Z,2.29
2023-03-06T12:21:31.272Z,2.06
2023-03-06T12:23:02.473Z,2.14
2023-03-06T12:24:04.157Z,2.42
2023-03-06T12:25:09.907Z,2.40
2023-03-06T12:26:35.834Z,2.48
2023-03-06T12:27:41.559Z,2.16
2023-03-06T12:28:50.242Z,2.47
2023-03-06T12:30:29.310Z,2.29
2023-03-06T12:31:47.599Z,2.27
2023-03-06T12:33:08.448Z,2.76
2023-03-06T12:34:25.926Z,2.84
2023-03-06T12:35:46.477Z,2.68
2023-03-06T12:37:22.948Z,2.46
2023-03-06T12:38:40.545Z,2.62
2023-03-06T12:40:19.256Z,2.53
2023-03-06T12:41:27.958Z,2.61
2023-03-06T12:42:56.790Z,2.66
2023-03-06T12:44:02.495Z,2.77
2023-03-06T12:45:14.135Z,2.78
2023-03-06T12:46:26.919Z,2.78
2023-03-06T12:47:32.726Z,2.69
2023-03-06T12:48:38.507Z,2.62
2023-03-06T12:49:44.089Z,2.54
2023-03-06T12:50:47.762Z,2.52
2023-03-06T12:51:51.409Z,2.49
2023-03-06T12:52:55.386Z,2.44
2023-03-06T12:54:01.049Z,2.39
2023-03-06T12:55:05.993Z,2.25
2023-03-06T12:56:10.785Z,2.49
2023-03-06T12:57:14.267Z,2.48
2023-03-06T12:58:32.300Z,2.34
2023-03-06T12:59:45.925Z,2.35
2023-03-06T13:01:16.559Z,2.15
2023-03-06T13:02:50.077Z,2.37
2023-03-06T13:04:08.012Z,2.32
2023-03-06T13:05:37.941Z,2.09
2023-03-06T13:07:06.709Z,2.27
2023-03-06T13:08:24.722Z,2.25
2023-03-06T13:09:56.540Z,1.90
2023-03-06T13:11:17.429Z,1.91
2023-03-06T13:12:58.251Z,1.74
2023-03-06T13:14:04.503Z,2.02
2023-03-06T13:15:37.794Z,2.27
2023-03-06T13:17:49.506Z,2.40
2023-03-06T13:18:55.148Z,2.38
2023-03-06T13:20:16.158Z,2.47
2023-03-06T13:21:44.657Z,2.49
2023-03-06T13:22:47.096Z,2.07
2023-03-06T13:23:50.783Z,2.23
2023-03-06T13:25:22.567Z,2.23
2023-03-06T13:26:28.377Z,1.99
2023-03-06T13:27:53.745Z,2.23
2023-03-06T13:28:56.407Z,2.42
2023-03-06T13:30:08.392Z,2.53
2023-03-06T13:31:26.834Z,2.37
2023-03-06T13:32:23.228Z,2.46
2023-03-06T13:33:31.748Z,2.49
2023-03-06T13:34:40.212Z,2.31
2023-03-06T13:35:48.073Z,2.52
2023-03-06T13:36:51.074Z,2.44
2023-03-06T13:37:53.862Z,2.51
2023-03-06T13:39:03.774Z,2.17
2023-03-06T13:40:12.392Z,2.30
2023-03-06T13:41:24.135Z,2.24
2023-03-06T13:42:29.445Z,1.75
2023-03-06T13:43:35.503Z,1.92
2023-03-06T13:44:42.274Z,1.97
2023-03-06T13:45:46.247Z,2.20
2023-03-06T13:47:01.198Z,2.34
2023-03-06T13:48:33.781Z,2.03
2023-03-06T13:50:41.204Z,2.24
2023-03-06T13:51:53.834Z,2.01
2023-03-06T13:53:05.795Z,1.92
2023-03-06T13:54:26.756Z,1.90
2023-03-06T13:55:44.474Z,1.86
2023-03-06T13:57:08.788Z,1.93
2023-03-06T13:58:29.635Z,2.00
2023-03-06T13:59:57.015Z,2.17
2023-03-06T14:00:59.759Z,2.00
2023-03-06T14:02:22.416Z,1.96
2023-03-06T14:03:40.653Z,1.84
2023-03-06T14:05:01.924Z,1.91
2023-03-06T14:06:19.592Z,1.90
2023-03-06T14:07:25.885Z,2.06
2023-03-06T14:08:33.291Z,2.11
2023-03-06T14:09:38.765Z,2.15
2023-03-06T14:10:42.622Z,2.17
2023-03-06T14:11:49.080Z,2.11
2023-03-06T14:13:03.878Z,2.07
2023-03-06T14:14:09.820Z,1.98
2023-03-06T14:15:18.520Z,2.06
2023-03-06T14:16:29.093Z,2.14
2023-03-06T14:17:34.080Z,2.15
2023-03-06T14:18:45.807Z,2.18
2023-03-06T14:19:50.469Z,2.22
2023-03-06T14:21:01.713Z,2.17
2023-03-06T14:22:06.427Z,1.86
2023-03-06T14:23:26.574Z,2.03
2023-03-06T14:24:37.526Z,2.02
2023-03-06T14:25:41.061Z,1.97
2023-03-06T14:26:46.887Z,1.94
2023-03-06T14:27:51.188Z,2.03
2023-03-06T14:29:01.457Z,1.84
2023-03-06T14:30:10.612Z,1.74
2023-03-06T14:31:18.258Z,1.70
2023-03-06T14:32:22.637Z,1.71
2023-03-06T14:33:50.541Z,1.71